Time;durP1;ratioP1;P1;durP2;ratioP2;P2;SDS_P1;SDS_P2;PMS_P1;PMS_P2;Temp;Humidity;BMP_temperature;BMP_pressure;BME280_temperature;BME280_humidity;BME280_pressure;Samples;Min_cycle;Max_cycle;Signal;HPM_P1;HPM_P2
2021/07/09 00:02:22;;;;;;;12.10;9.98;;;;;;;24.30;58.00;96815.67;128039;1093;24799;-89
2021/07/09 00:04:53;;;;;;;11.00;9.85;;;;;;;24.11;58.29;96802.95;128033;1092;23770;-88
2021/07/09 00:07:25;;;;;;;11.10;9.40;;;;;;;24.10;58.68;96801.40;128057;1093;31300;-88
2021/07/09 00:09:56;;;;;;;10.55;9.50;;;;;;;24.15;59.19;96793.73;128067;1093;26119;-89
2021/07/09 00:12:27;;;;;;;10.10;9.10;;;;;;;24.21;58.87;96783.38;128061;1093;26588;-90
2021/07/09 00:14:59;;;;;;;11.40;10.20;;;;;;;24.21;59.12;96786.08;128067;1093;25533;-89
2021/07/09 00:17:30;;;;;;;10.85;9.73;;;;;;;24.10;59.07;96785.14;127971;1093;24957;-90
2021/07/09 00:20:01;;;;;;;11.45;9.70;;;;;;;24.17;59.09;96780.61;128057;1093;25295;-89
2021/07/09 00:22:33;;;;;;;12.30;9.45;;;;;;;24.24;58.67;96777.25;128014;1092;27113;-88
2021/07/09 00:25:06;;;;;;;10.25;9.18;;;;;;;24.28;58.76;96770.73;128063;1092;26896;-88
2021/07/09 00:27:37;;;;;;;11.00;9.10;;;;;;;24.33;58.12;96775.08;128062;1092;25938;-88
2021/07/09 00:30:10;;;;;;;10.23;9.13;;;;;;;24.39;57.81;96762.03;127749;1093;25559;-89
2021/07/09 00:32:42;;;;;;;10.10;9.10;;;;;;;24.43;57.91;96760.14;128084;1092;26296;-88
2021/07/09 00:35:14;;;;;;;10.58;8.70;;;;;;;24.44;58.30;96761.70;128151;1093;28002;-88
2021/07/09 00:37:45;;;;;;;10.48;9.18;;;;;;;24.41;58.10;96757.02;127962;1093;23665;-89
2021/07/09 00:40:18;;;;;;;12.10;8.90;;;;;;;24.41;58.26;96749.67;128051;1093;25420;-89
2021/07/09 00:42:49;;;;;;;10.43;8.75;;;;;;;24.37;58.25;96756.20;127983;1093;34265;-90
2021/07/09 00:45:21;;;;;;;9.83;8.58;;;;;;;24.35;58.56;96748.43;128129;1092;27127;-91
2021/07/09 00:47:52;;;;;;;9.73;8.50;;;;;;;24.38;58.82;96744.98;128110;1093;28051;-90
2021/07/09 00:50:24;;;;;;;10.53;8.40;;;;;;;24.21;58.67;96748.16;128060;1092;26186;-90
2021/07/09 00:52:55;;;;;;;13.38;8.78;;;;;;;24.07;57.72;96743.31;128061;1092;25796;-90
2021/07/09 00:55:27;;;;;;;9.53;8.20;;;;;;;24.14;58.07;96742.64;127743;1093;26511;-90
2021/07/09 00:58:00;;;;;;;9.88;8.80;;;;;;;24.03;58.77;96752.51;128044;1092;24731;-88
2021/07/09 01:00:33;;;;;;;10.50;8.68;;;;;;;23.91;59.35;96750.76;128040;1093;25702;-90
2021/07/09 01:03:07;;;;;;;9.55;8.53;;;;;;;23.90;59.59;96741.85;128043;1093;60162;-88
2021/07/09 01:05:39;;;;;;;9.20;7.93;;;;;;;23.87;59.38;96739.88;128058;1093;26759;-89
2021/07/09 01:08:11;;;;;;;10.60;8.90;;;;;;;23.84;59.51;96739.82;128063;1093;25188;-90
2021/07/09 01:10:43;;;;;;;10.15;8.95;;;;;;;23.81;59.63;96743.26;128094;1092;23954;-89
2021/07/09 01:13:17;;;;;;;11.63;9.80;;;;;;;23.70;60.59;96740.36;128114;1093;25572;-85
2021/07/09 01:15:49;;;;;;;9.30;8.35;;;;;;;23.55;60.59;96736.59;128086;1093;25507;-91
2021/07/09 01:18:21;;;;;;;10.20;8.58;;;;;;;23.60;60.56;96730.89;128074;1092;27889;-91
2021/07/09 01:20:52;;;;;;;11.13;8.67;;;;;;;23.73;59.87;96739.63;128026;1093;28887;-90
2021/07/09 01:23:29;;;;;;;9.43;8.20;;;;;;;23.85;59.41;96727.84;127953;1093;27769;-90
2021/07/09 01:26:00;;;;;;;10.58;9.05;;;;;;;23.89;59.43;96734.88;128033;1093;27607;-89
2021/07/09 01:28:32;;;;;;;9.93;8.93;;;;;;;23.74;59.73;96735.00;128053;1093;23377;-89
2021/07/09 01:31:04;;;;;;;11.50;8.63;;;;;;;23.66;59.75;96734.89;128086;1092;24513;-90
2021/07/09 01:33:36;;;;;;;10.23;8.68;;;;;;;23.71;60.35;96746.55;128097;1092;24056;-88
2021/07/09 01:36:08;;;;;;;10.58;9.18;;;;;;;23.60;60.10;96732.82;127961;1092;25776;-89
2021/07/09 01:38:39;;;;;;;10.70;8.93;;;;;;;23.63;60.20;96729.39;128050;1093;26513;-89
2021/07/09 01:41:11;;;;;;;11.37;8.50;;;;;;;23.68;60.48;96732.60;128158;1093;23200;-88
2021/07/09 01:43:42;;;;;;;9.65;8.35;;;;;;;23.68;59.70;96724.48;128087;1092;25813;-89
2021/07/09 01:46:14;;;;;;;9.78;7.58;;;;;;;23.74;59.88;96729.58;128143;1093;25704;-89
2021/07/09 01:48:45;;;;;;;8.88;7.63;;;;;;;23.75;60.10;96721.09;128036;1092;34122;-89
2021/07/09 01:51:16;;;;;;;8.70;7.63;;;;;;;23.76;59.85;96719.95;128048;1093;28593;-92
2021/07/09 01:53:48;;;;;;;8.68;7.75;;;;;;;23.74;59.73;96710.63;127964;1092;25456;-91
2021/07/09 01:56:20;;;;;;;10.75;7.88;;;;;;;23.68;59.55;96718.28;128133;1093;25480;-88
2021/07/09 01:58:53;;;;;;;9.05;7.73;;;;;;;23.60;59.05;96709.24;128070;1092;24559;-89
2021/07/09 02:01:24;;;;;;;9.88;7.90;;;;;;;23.66;58.79;96710.53;127917;1092;25692;-89
2021/07/09 02:03:56;;;;;;;8.38;7.38;;;;;;;23.72;58.62;96705.59;128076;1093;25867;-90
2021/07/09 02:06:27;;;;;;;9.63;7.38;;;;;;;23.76;58.83;96698.30;128092;1093;23145;-90
2021/07/09 02:08:59;;;;;;;9.35;7.53;;;;;;;23.78;58.35;96703.34;128030;1093;25836;-90
2021/07/09 02:11:30;;;;;;;8.48;7.40;;;;;;;23.74;58.03;96703.30;128065;1093;29130;-88
2021/07/09 02:14:02;;;;;;;9.35;8.10;;;;;;;23.63;58.47;96702.33;128089;1092;24466;-90
2021/07/09 02:16:33;;;;;;;9.30;8.00;;;;;;;23.32;58.96;96695.17;128095;1093;25813;-90
2021/07/09 02:19:04;;;;;;;10.00;8.20;;;;;;;23.17;58.65;96694.13;127918;1093;25953;-90
2021/07/09 02:21:36;;;;;;;9.90;8.35;;;;;;;23.16;59.15;96691.78;128083;1093;27715;-90
2021/07/09 02:24:09;;;;;;;8.75;7.53;;;;;;;23.16;59.56;96700.67;128053;1092;25437;-90
2021/07/09 02:26:40;;;;;;;10.80;8.60;;;;;;;23.14;59.45;96702.18;128184;1093;23871;-90
2021/07/09 02:29:11;;;;;;;11.13;8.08;;;;;;;23.10;60.08;96696.70;128120;1092;28207;-90
2021/07/09 02:31:43;;;;;;;9.08;7.90;;;;;;;23.06;59.92;96701.24;128148;1093;24493;-94
2021/07/09 02:34:14;;;;;;;9.30;8.30;;;;;;;23.04;59.62;96703.52;128087;1093;50572;-92
2021/07/09 02:36:46;;;;;;;11.10;8.28;;;;;;;22.94;60.21;96699.46;127769;1093;27789;-92
2021/07/09 02:39:17;;;;;;;9.00;7.65;;;;;;;22.81;59.89;96711.55;128045;1092;25860;-92
2021/07/09 02:41:48;;;;;;;10.58;8.55;;;;;;;22.70;60.66;96705.13;128079;1093;26490;-91
2021/07/09 02:44:20;;;;;;;9.03;7.93;;;;;;;22.77;60.60;96700.64;128086;1093;24498;-91
2021/07/09 02:46:52;;;;;;;10.83;8.05;;;;;;;22.85;60.32;96701.61;128082;1093;24817;-92
2021/07/09 02:49:24;;;;;;;11.05;7.70;;;;;;;22.86;60.11;96700.47;128100;1093;28808;-92
2021/07/09 02:51:56;;;;;;;8.75;7.63;;;;;;;22.95;60.31;96700.27;128181;1093;24188;-92
2021/07/09 02:54:27;;;;;;;9.15;7.05;;;;;;;23.07;60.13;96697.39;128072;1093;24398;-93
2021/07/09 02:56:58;;;;;;;8.68;7.43;;;;;;;23.15;60.30;96699.11;128084;1092;24567;-92
2021/07/09 02:59:30;;;;;;;9.18;7.88;;;;;;;23.33;60.15;96696.73;128084;1093;23478;-93
2021/07/09 03:02:01;;;;;;;9.20;7.38;;;;;;;23.64;59.55;96699.25;128103;1093;25604;-93
2021/07/09 03:04:33;;;;;;;11.13;8.00;;;;;;;23.99;59.36;96695.58;128062;1093;26157;-92
2021/07/09 03:07:04;;;;;;;10.63;8.05;;;;;;;24.29;58.10;96690.23;128110;1092;26598;-94
2021/07/09 03:09:36;;;;;;;10.25;7.70;;;;;;;24.55;57.79;96703.02;128104;1092;26821;-92
2021/07/09 03:12:08;;;;;;;9.38;8.03;;;;;;;24.71;57.54;96703.62;128139;1093;24164;-93
2021/07/09 03:14:41;;;;;;;10.70;7.60;;;;;;;24.81;56.59;96696.78;128086;1092;30900;-95
2021/07/09 03:17:12;;;;;;;11.23;8.33;;;;;;;24.97;56.18;96707.43;128134;1092;28650;-91
2021/07/09 03:19:45;;;;;;;10.25;7.85;;;;;;;25.03;56.16;96711.40;128252;1093;22952;-92
2021/07/09 03:22:16;;;;;;;9.28;7.83;;;;;;;25.08;55.93;96711.09;128106;1092;26728;-92
2021/07/09 03:24:48;;;;;;;9.20;7.63;;;;;;;25.13;55.46;96703.39;128081;1092;31209;-92
2021/07/09 03:27:19;;;;;;;8.58;7.20;;;;;;;25.21;55.57;96698.06;127995;1093;29806;-92
2021/07/09 03:29:51;;;;;;;9.80;7.93;;;;;;;25.25;55.40;96698.87;127998;1093;29493;-92
2021/07/09 03:32:22;;;;;;;9.33;7.85;;;;;;;25.32;55.43;96704.36;127974;1092;24672;-92
2021/07/09 03:34:54;;;;;;;8.90;7.60;;;;;;;25.35;55.15;96701.70;128105;1091;33612;-93
2021/07/09 03:37:25;;;;;;;8.73;7.53;;;;;;;25.42;54.51;96709.13;128056;1092;26132;-91
2021/07/09 03:39:57;;;;;;;8.68;7.48;;;;;;;25.45;54.77;96706.44;128126;1093;24939;-90
2021/07/09 03:42:28;;;;;;;9.18;7.48;;;;;;;25.45;54.93;96711.88;127759;1092;26664;-91
2021/07/09 03:45:00;;;;;;;8.58;7.35;;;;;;;25.49;54.57;96714.64;128076;1093;26672;-90
2021/07/09 03:47:31;;;;;;;8.35;6.88;;;;;;;25.52;54.37;96704.97;128090;1093;28764;-91
2021/07/09 03:50:03;;;;;;;12.47;8.20;;;;;;;25.56;54.59;96703.06;128148;1092;23059;-91
2021/07/09 03:52:35;;;;;;;9.55;7.25;;;;;;;25.62;54.16;96707.02;128110;1093;26472;-89
2021/07/09 03:55:09;;;;;;;10.40;7.65;;;;;;;25.65;54.54;96709.75;128105;1092;23761;-90
2021/07/09 03:57:41;;;;;;;9.37;7.83;;;;;;;25.66;54.26;96705.10;128125;1092;29630;-90
2021/07/09 04:00:16;;;;;;;10.70;7.73;;;;;;;25.71;54.36;96707.50;128042;1092;27923;-90
2021/07/09 04:02:48;;;;;;;10.03;7.60;;;;;;;25.75;53.87;96708.30;128075;1093;25989;-90
2021/07/09 04:05:19;;;;;;;9.48;7.50;;;;;;;25.79;53.74;96713.78;128065;1092;27745;-90
2021/07/09 04:07:51;;;;;;;8.53;7.03;;;;;;;25.82;53.86;96711.09;128103;1092;26815;-90
2021/07/09 04:10:22;;;;;;;8.98;6.98;;;;;;;25.85;53.73;96706.84;128040;1092;26602;-92
2021/07/09 04:12:53;;;;;;;9.28;7.80;;;;;;;25.83;53.80;96709.16;128089;1092;26039;-90
2021/07/09 04:15:25;;;;;;;8.93;7.55;;;;;;;25.82;53.79;96710.31;128114;1093;24535;-91
2021/07/09 04:17:56;;;;;;;11.05;7.45;;;;;;;25.84;53.73;96699.85;128047;1092;25017;-90
2021/07/09 04:20:28;;;;;;;10.45;6.95;;;;;;;25.83;53.81;96699.08;127987;1092;25716;-92
2021/07/09 04:22:59;;;;;;;9.13;6.83;;;;;;;25.85;53.78;96696.76;127777;1093;25690;-90
2021/07/09 04:25:31;;;;;;;8.83;7.33;;;;;;;25.90;53.76;96691.00;128103;1093;23589;-90
2021/07/09 04:28:02;;;;;;;11.05;7.33;;;;;;;25.99;53.93;96696.09;128083;1093;23792;-89
2021/07/09 04:30:34;;;;;;;8.30;7.13;;;;;;;26.03;53.85;96705.83;128070;1092;25126;-89
2021/07/09 04:33:06;;;;;;;8.33;7.28;;;;;;;26.04;53.57;96704.70;128062;1093;25552;-90
2021/07/09 04:35:37;;;;;;;8.45;7.18;;;;;;;26.09;53.32;96710.92;128076;1092;25936;-91
2021/07/09 04:38:09;;;;;;;10.00;7.67;;;;;;;26.16;53.40;96713.69;128111;1092;24114;-91
2021/07/09 04:40:40;;;;;;;8.68;7.68;;;;;;;26.23;54.01;96705.59;128188;1093;22784;-90
2021/07/09 04:43:11;;;;;;;10.05;7.50;;;;;;;26.33;54.23;96710.34;128176;1093;23527;-91
2021/07/09 04:45:43;;;;;;;9.38;6.95;;;;;;;26.43;53.08;96709.63;128131;1093;26281;-91
2021/07/09 04:48:15;;;;;;;10.30;6.88;;;;;;;26.43;52.63;96706.14;128139;1093;23907;-90
2021/07/09 04:50:46;;;;;;;9.57;7.00;;;;;;;26.42;52.62;96704.58;128068;1093;27401;-89
2021/07/09 04:53:17;;;;;;;9.35;7.23;;;;;;;26.50;52.51;96706.97;128030;1093;27871;-91
2021/07/09 04:55:48;;;;;;;8.50;7.53;;;;;;;26.66;52.90;96703.17;128061;1092;23000;-90
2021/07/09 04:58:20;;;;;;;7.88;6.65;;;;;;;26.73;52.69;96692.31;127802;1092;26242;-91
2021/07/09 05:00:51;;;;;;;9.20;6.53;;;;;;;26.83;52.32;96686.93;128060;1093;25566;-91
2021/07/09 05:03:22;;;;;;;8.68;7.20;;;;;;;26.92;52.29;96697.47;128042;1093;23239;-90
2021/07/09 05:05:54;;;;;;;9.50;7.05;;;;;;;27.09;52.11;96685.13;128095;1092;24385;-91
2021/07/09 05:08:25;;;;;;;10.17;7.13;;;;;;;27.19;51.64;96698.77;127800;1093;25377;-90
2021/07/09 05:10:56;;;;;;;10.55;7.23;;;;;;;27.45;51.91;96697.67;128018;1093;27722;-89
2021/07/09 05:13:27;;;;;;;10.53;7.77;;;;;;;27.74;51.80;96703.97;128055;1092;23106;-90
2021/07/09 05:16:00;;;;;;;8.83;6.33;;;;;;;28.01;51.65;96709.83;128099;1092;23191;-90
2021/07/09 05:18:31;;;;;;;8.63;7.35;;;;;;;28.58;50.83;96714.47;128062;1091;23706;-90
2021/07/09 05:21:03;;;;;;;8.45;7.00;;;;;;;30.10;49.35;96710.20;127908;1092;22788;-90
2021/07/09 05:23:34;;;;;;;7.60;6.28;;;;;;;31.96;47.69;96703.36;128115;1092;22794;-90
2021/07/09 05:26:06;;;;;;;7.88;6.63;;;;;;;33.74;45.13;96707.40;128095;1093;26305;-90
2021/07/09 05:28:37;;;;;;;7.75;6.33;;;;;;;35.30;42.90;96700.59;128019;1093;26476;-90
2021/07/09 05:31:09;;;;;;;6.55;5.95;;;;;;;36.77;41.40;96696.69;128148;1093;23442;-90
2021/07/09 05:33:40;;;;;;;7.45;6.55;;;;;;;38.12;38.91;96697.06;128568;1092;25064;-91
2021/07/09 05:36:12;;;;;;;8.33;5.88;;;;;;;38.55;36.62;96690.52;129065;1092;23615;-91
2021/07/09 05:38:43;;;;;;;6.83;5.83;;;;;;;39.37;35.78;96702.77;128883;1093;28284;-90
2021/07/09 05:41:14;;;;;;;6.63;5.98;;;;;;;40.02;34.93;96706.87;128220;1093;22830;-90
2021/07/09 05:43:46;;;;;;;6.78;5.83;;;;;;;40.95;33.50;96689.05;128030;1093;22803;-88
2021/07/09 05:46:17;;;;;;;8.13;5.80;;;;;;;41.39;32.87;96691.10;128032;1092;24582;-91
2021/07/09 05:48:49;;;;;;;7.48;5.43;;;;;;;40.39;31.65;96696.27;127680;1093;27140;-91
2021/07/09 05:51:20;;;;;;;8.28;5.43;;;;;;;39.43;32.06;96693.36;128101;1091;23607;-90
2021/07/09 05:53:52;;;;;;;6.33;5.73;;;;;;;40.61;32.49;96696.75;127960;1092;55912;-90
2021/07/09 05:56:23;;;;;;;5.98;5.23;;;;;;;41.98;31.31;96697.33;127934;1093;24127;-91
2021/07/09 05:58:54;;;;;;;5.38;4.88;;;;;;;43.37;29.97;96683.48;127943;1093;28596;-90
2021/07/09 06:01:26;;;;;;;5.80;5.20;;;;;;;44.26;29.02;96686.09;128082;1092;23175;-89
2021/07/09 06:03:57;;;;;;;5.95;5.35;;;;;;;45.54;28.02;96679.25;128033;1093;22877;-90
2021/07/09 06:06:28;;;;;;;6.75;5.05;;;;;;;46.87;27.21;96677.30;127704;1093;22809;-88
2021/07/09 06:09:00;;;;;;;5.75;5.23;;;;;;;46.54;24.53;96685.89;128153;1093;23698;-89
2021/07/09 06:11:31;;;;;;;5.60;4.90;;;;;;;46.40;25.24;96685.70;128059;1093;22798;-90
2021/07/09 06:14:02;;;;;;;4.90;4.50;;;;;;;47.25;22.94;96689.55;127814;1093;23539;-90
2021/07/09 06:16:34;;;;;;;5.70;4.87;;;;;;;46.48;23.32;96696.39;128024;1093;27006;-89
2021/07/09 06:19:05;;;;;;;6.05;5.10;;;;;;;46.71;23.96;96697.78;128057;1093;25651;-89
2021/07/09 06:21:37;;;;;;;6.28;4.45;;;;;;;47.71;23.67;96690.70;128013;1093;23710;-89
2021/07/09 06:24:09;;;;;;;5.65;4.90;;;;;;;48.36;23.17;96698.21;128027;1093;37946;-89
2021/07/09 06:26:41;;;;;;;5.20;4.70;;;;;;;48.41;22.38;96694.55;128072;1093;22955;-88
2021/07/09 06:29:13;;;;;;;5.18;4.68;;;;;;;48.40;21.65;96697.91;128165;1093;27455;-91
2021/07/09 06:31:44;;;;;;;5.03;4.55;;;;;;;48.32;21.69;96688.56;128207;1093;22790;-91
2021/07/09 06:34:18;;;;;;;4.93;4.15;;;;;;;48.45;20.99;96680.97;128080;1092;22838;-89
2021/07/09 06:36:50;;;;;;;5.00;4.50;;;;;;;48.38;20.79;96686.42;128113;1093;27022;-90
2021/07/09 06:39:21;;;;;;;6.15;4.48;;;;;;;47.66;20.80;96671.09;128176;1093;27175;-93
2021/07/09 06:41:52;;;;;;;5.18;4.75;;;;;;;47.04;20.05;96680.01;128252;1092;39895;-90
2021/07/09 06:44:24;;;;;;;5.25;4.50;;;;;;;47.15;21.70;96674.31;128133;1092;26663;-91
2021/07/09 06:46:55;;;;;;;5.23;4.55;;;;;;;48.12;21.32;96673.67;127745;1093;31924;-90
2021/07/09 06:49:27;;;;;;;4.80;4.33;;;;;;;49.21;21.01;96672.48;128087;1093;27988;-93
2021/07/09 06:51:58;;;;;;;5.55;4.95;;;;;;;49.89;20.61;96667.98;128137;1092;32342;-92
2021/07/09 06:54:29;;;;;;;5.40;4.85;;;;;;;50.87;19.40;96674.72;127999;1093;29745;-92
2021/07/09 06:57:01;;;;;;;4.77;4.13;;;;;;;51.14;18.01;96675.38;127793;1092;27990;-92
2021/07/09 06:59:32;;;;;;;7.35;4.93;;;;;;;50.55;18.47;96666.44;128200;1092;27625;-93
2021/07/09 07:02:04;;;;;;;5.43;4.93;;;;;;;50.41;19.43;96662.89;128233;1093;25307;-92
2021/07/09 07:04:36;;;;;;;5.10;4.68;;;;;;;51.86;18.92;96661.48;128215;1093;31879;-92
2021/07/09 07:07:07;;;;;;;5.15;4.58;;;;;;;52.21;18.90;96662.81;128194;1092;30433;-93
2021/07/09 07:09:39;;;;;;;5.85;4.98;;;;;;;50.75;18.17;96655.20;128175;1092;34036;-92
2021/07/09 07:12:11;;;;;;;5.10;4.60;;;;;;;50.22;18.55;96654.52;128142;1092;28702;-92
2021/07/09 07:14:42;;;;;;;8.40;4.53;;;;;;;51.03;18.69;96653.78;128129;1093;27851;-92
2021/07/09 07:17:14;;;;;;;4.70;4.25;;;;;;;49.87;17.47;96653.67;128096;1092;28626;-93
2021/07/09 07:19:46;;;;;;;5.18;4.68;;;;;;;49.04;18.40;96659.44;128146;1093;28030;-87
2021/07/09 07:22:17;;;;;;;5.68;4.68;;;;;;;48.71;18.16;96657.88;127979;1092;31000;-92
2021/07/09 07:24:51;;;;;;;7.20;4.93;;;;;;;48.08;18.54;96659.16;127990;1092;30234;-92
2021/07/09 07:27:27;;;;;;;4.95;4.65;;;;;;;47.86;19.12;96656.56;128029;1092;27896;-92
2021/07/09 07:29:59;;;;;;;4.83;4.43;;;;;;;48.58;19.57;96646.52;127967;1093;25682;-92
2021/07/09 07:32:30;;;;;;;6.63;4.35;;;;;;;50.36;18.80;96650.41;128054;1093;23414;-92
2021/07/09 07:35:02;;;;;;;5.28;4.75;;;;;;;51.05;17.54;96649.13;128013;1093;31107;-92
2021/07/09 07:37:33;;;;;;;4.90;4.50;;;;;;;51.12;17.94;96647.69;128030;1093;29061;-92
2021/07/09 07:40:07;;;;;;;4.30;3.90;;;;;;;49.96;16.65;96637.59;128002;1093;25463;-92
2021/07/09 07:42:38;;;;;;;4.85;4.38;;;;;;;48.42;17.55;96642.63;128019;1091;26083;-92
2021/07/09 07:45:12;;;;;;;4.75;4.35;;;;;;;47.99;18.31;96641.88;127916;1093;31630;-92
2021/07/09 07:47:44;;;;;;;5.30;4.90;;;;;;;49.88;18.82;96641.09;128105;1093;26161;-93
2021/07/09 07:50:17;;;;;;;5.10;4.70;;;;;;;51.08;17.76;96642.36;127740;1093;31081;-92
2021/07/09 07:52:49;;;;;;;4.93;4.53;;;;;;;52.13;17.44;96636.57;128059;1092;27625;-93
2021/07/09 07:55:20;;;;;;;5.23;4.73;;;;;;;52.81;16.90;96638.92;127986;1093;33010;-93
2021/07/09 07:57:52;;;;;;;4.70;4.40;;;;;;;52.34;17.54;96630.80;127994;1092;23430;-93
2021/07/09 08:00:27;;;;;;;4.75;4.35;;;;;;;53.37;16.72;96632.20;128075;1092;26797;-93
2021/07/09 08:02:58;;;;;;;5.10;4.70;;;;;;;53.17;16.86;96635.94;127714;1092;25435;-92
2021/07/09 08:05:29;;;;;;;4.90;4.50;;;;;;;52.18;15.93;96622.25;127993;1092;27637;-92
2021/07/09 08:08:01;;;;;;;8.68;5.28;;;;;;;50.92;16.72;96615.27;128039;1092;28595;-92
2021/07/09 08:10:32;;;;;;;4.93;4.53;;;;;;;51.20;17.58;96616.67;128009;1093;29945;-92
2021/07/09 08:13:04;;;;;;;5.30;4.90;;;;;;;51.93;16.32;96621.16;127772;1092;26468;-94
2021/07/09 08:15:35;;;;;;;5.05;4.65;;;;;;;49.77;16.57;96603.90;128018;1093;29589;-93
2021/07/09 08:18:07;;;;;;;6.28;4.90;;;;;;;49.00;18.76;96611.13;127783;1093;26344;-94
2021/07/09 08:20:40;;;;;;;4.90;4.50;;;;;;;49.34;17.72;96608.52;128173;1093;26096;-92
2021/07/09 08:23:12;;;;;;;5.95;5.35;;;;;;;47.59;18.02;96605.78;128141;1093;25245;-93
2021/07/09 08:25:43;;;;;;;5.75;5.25;;;;;;;46.67;19.56;96604.72;128150;1092;25166;-92
2021/07/09 08:28:19;;;;;;;5.13;4.73;;;;;;;47.90;19.27;96612.10;128103;1092;33510;-94
2021/07/09 08:30:50;;;;;;;5.98;5.38;;;;;;;46.14;18.94;96607.54;128013;1093;28713;-92
2021/07/09 08:33:22;;;;;;;6.05;5.50;;;;;;;44.70;20.56;96606.41;128134;1093;27120;-92
2021/07/09 08:35:53;;;;;;;5.98;5.45;;;;;;;44.85;21.47;96608.97;128074;1093;32006;-92
2021/07/09 08:38:25;;;;;;;6.90;6.20;;;;;;;43.99;21.63;96614.81;128129;1093;24602;-92
2021/07/09 08:40:56;;;;;;;6.53;5.78;;;;;;;42.81;22.58;96612.42;128183;1092;32183;-92
2021/07/09 08:43:28;;;;;;;6.53;5.93;;;;;;;42.13;23.27;96608.14;128072;1092;30052;-91
2021/07/09 08:46:00;;;;;;;6.85;6.15;;;;;;;41.92;24.00;96609.36;127802;1093;32758;-91
2021/07/09 08:48:32;;;;;;;6.18;5.58;;;;;;;41.14;25.35;96608.97;128079;1093;42166;-91
2021/07/09 08:51:04;;;;;;;8.50;6.00;;;;;;;40.79;25.04;96600.52;127951;1092;28670;-92
2021/07/09 08:53:36;;;;;;;8.10;6.13;;;;;;;39.97;26.35;96594.41;128103;1093;27681;-93
2021/07/09 08:56:09;;;;;;;10.25;6.38;;;;;;;39.46;27.36;96605.64;128079;1093;32946;-92
2021/07/09 08:58:41;;;;;;;10.70;5.70;;;;;;;39.42;27.86;96593.95;128098;1092;28648;-91
2021/07/09 09:01:14;;;;;;;6.93;6.00;;;;;;;39.50;28.58;96586.80;128191;1093;24579;-90
2021/07/09 09:03:46;;;;;;;8.00;6.18;;;;;;;39.47;28.59;96591.30;128158;1093;29903;-90
2021/07/09 09:06:17;;;;;;;9.03;6.25;;;;;;;39.51;28.52;96587.58;128124;1093;26032;-92
2021/07/09 09:08:52;;;;;;;7.35;6.08;;;;;;;39.35;28.85;96583.19;128101;1092;27948;-92
2021/07/09 09:11:24;;;;;;;8.23;6.88;;;;;;;38.98;28.96;96588.08;128107;1093;25578;-93
2021/07/09 09:13:55;;;;;;;7.43;6.73;;;;;;;38.61;29.09;96585.39;128075;1093;37596;-93
2021/07/09 09:16:32;;;;;;;7.15;6.45;;;;;;;38.25;29.31;96581.42;128037;1092;32538;-93
2021/07/09 09:19:05;;;;;;;8.78;6.15;;;;;;;38.18;29.28;96573.41;128010;1093;35533;-93
2021/07/09 09:21:37;;;;;;;10.38;6.53;;;;;;;37.83;29.62;96569.38;128088;1092;27324;-93
2021/07/09 09:24:08;;;;;;;8.05;6.30;;;;;;;37.70;30.40;96572.25;128141;1092;28591;-94
2021/07/09 09:26:44;;;;;;;7.60;6.80;;;;;;;37.77;30.30;96571.23;128112;1093;44412;-92
2021/07/09 09:29:34;;;;;;;6.80;6.15;;;;;;;37.88;30.56;96566.79;128124;1093;26774;-87
2021/07/09 09:32:09;;;;;;;7.83;6.25;;;;;;;37.60;31.74;96565.95;128190;1093;27221;-96
2021/07/09 09:34:43;;;;;;;10.17;6.80;;;;;;;37.65;31.47;96565.34;128095;1093;39853;-92
2021/07/09 09:37:19;;;;;;;8.63;7.15;;;;;;;37.57;31.26;96572.38;127857;1093;22792;-92
2021/07/09 09:39:52;;;;;;;8.00;6.50;;;;;;;37.55;31.42;96571.30;128065;1092;34023;-93
2021/07/09 09:42:25;;;;;;;7.45;6.75;;;;;;;37.39;30.92;96570.34;128041;1093;36280;-91
2021/07/09 09:45:03;;;;;;;7.80;7.08;;;;;;;36.99;30.98;96573.09;128059;1092;25930;-91
2021/07/09 09:47:36;;;;;;;8.00;6.68;;;;;;;36.55;31.65;96567.61;128084;1093;42175;-93
2021/07/09 09:50:15;;;;;;;7.05;6.35;;;;;;;36.56;32.03;96560.09;128047;1093;31393;-92
2021/07/09 09:52:48;;;;;;;6.80;6.10;;;;;;;36.64;31.88;96555.85;128045;1092;38498;-94
2021/07/09 09:55:24;;;;;;;8.00;6.40;;;;;;;36.63;32.62;96561.83;128082;1092;31340;-92
2021/07/09 10:00:59;;;;;;;6.23;5.65;;;;;;;35.78;32.95;96551.79;127719;1092;34317;-92
2021/07/09 10:03:30;;;;;;;8.45;7.08;;;;;;;35.50;33.29;96548.00;127657;1093;43155;-92
2021/07/09 10:06:03;;;;;;;10.03;6.63;;;;;;;35.50;34.08;96550.75;127759;1091;42889;-92
2021/07/09 10:08:36;;;;;;;7.93;6.87;;;;;;;35.84;34.21;96548.00;127719;1091;44267;-93
2021/07/09 10:11:08;;;;;;;6.58;5.78;;;;;;;35.85;31.98;96548.80;127912;1093;31129;-93
2021/07/09 10:13:40;;;;;;;5.93;5.28;;;;;;;35.72;31.31;96546.05;127818;1092;32647;-93
2021/07/09 10:16:12;;;;;;;6.58;5.63;;;;;;;35.60;30.81;96549.61;127872;1093;30238;-94
2021/07/09 10:18:45;;;;;;;6.25;5.65;;;;;;;35.28;30.60;96545.89;127881;1092;35334;-93
2021/07/09 10:21:16;;;;;;;7.93;5.80;;;;;;;35.04;31.31;96541.92;127757;1093;53301;-91
2021/07/09 10:23:49;;;;;;;5.98;4.78;;;;;;;35.06;30.93;96542.28;127725;1093;28560;-93
2021/07/09 10:26:21;;;;;;;7.23;5.50;;;;;;;35.04;29.49;96544.68;127751;1093;57954;-94
2021/07/09 10:29:12;;;;;;;6.68;5.30;;;;;;;35.02;30.32;96544.36;127953;1093;55745;-93
2021/07/09 10:31:46;;;;;;;6.00;5.40;;;;;;;35.11;30.12;96541.72;128047;1093;29252;-92
2021/07/09 10:34:37;;;;;;;6.00;5.40;;;;;;;35.25;30.68;96551.52;127951;1093;39225;-92
2021/07/09 10:37:22;;;;;;;6.88;5.90;;;;;;;35.14;30.57;96542.81;127928;1091;53078;-91
2021/07/09 10:40:04;;;;;;;6.55;5.33;;;;;;;34.83;31.16;96538.60;127861;1093;31718;-91
2021/07/09 10:42:40;;;;;;;7.10;5.90;;;;;;;34.96;31.34;96540.63;127722;1093;47503;-93
2021/07/09 10:45:20;;;;;;;6.13;5.50;;;;;;;35.02;31.93;96542.38;127859;1093;56861;-93
2021/07/09 10:47:55;;;;;;;8.00;6.10;;;;;;;34.98;30.79;96535.44;127811;1093;25892;-90
2021/07/09 10:50:41;;;;;;;7.10;5.78;;;;;;;34.81;31.62;96532.77;128148;1093;25189;-90
2021/07/09 10:53:30;;;;;;;6.68;5.80;;;;;;;34.69;30.98;96530.77;128028;1092;29937;-92
2021/07/09 10:56:04;;;;;;;7.00;5.48;;;;;;;34.55;31.40;96530.42;127970;1093;29814;-93
2021/07/09 10:58:41;;;;;;;8.13;5.30;;;;;;;34.36;31.42;96532.13;127869;1093;33288;-92
2021/07/09 11:01:19;;;;;;;7.33;5.58;;;;;;;34.30;31.56;96525.59;127968;1093;44119;-91
2021/07/09 11:04:08;;;;;;;8.03;6.35;;;;;;;34.21;31.39;96524.27;128004;1093;27605;-95
2021/07/09 11:06:44;;;;;;;10.25;6.23;;;;;;;34.23;31.98;96527.34;128072;1093;23559;-94
2021/07/09 11:09:16;;;;;;;7.33;6.53;;;;;;;34.31;32.81;96527.14;127596;1093;55467;-93
2021/07/09 11:11:50;;;;;;;9.68;7.38;;;;;;;34.27;33.21;96532.75;127874;1093;27516;-90
2021/07/09 11:14:32;;;;;;;8.25;6.48;;;;;;;34.13;33.42;96544.15;127556;1092;25931;-90
2021/07/09 11:17:17;;;;;;;8.98;6.90;;;;;;;33.74;34.00;96536.91;127501;1093;25321;-94
2021/07/09 11:19:49;;;;;;;9.00;7.07;;;;;;;33.46;34.29;96536.42;127564;1093;45773;-93
2021/07/09 11:22:21;;;;;;;9.78;7.05;;;;;;;33.33;34.97;96541.03;128022;1093;42123;-94
2021/07/09 11:24:53;;;;;;;9.48;6.90;;;;;;;33.24;35.38;96533.41;128345;1093;32711;-94
2021/07/09 11:27:27;;;;;;;6.88;6.23;;;;;;;33.22;35.72;96526.77;128251;1092;36807;-92
2021/07/09 11:30:01;;;;;;;7.43;6.65;;;;;;;33.04;35.48;96538.19;127841;1093;34264;-94
2021/07/09 11:32:35;;;;;;;8.10;7.30;;;;;;;32.91;36.11;96534.56;127810;1092;32055;-94
2021/07/09 11:35:08;;;;;;;7.90;6.38;;;;;;;33.03;36.23;96539.38;127826;1093;36800;-93
2021/07/09 11:37:40;;;;;;;11.28;6.80;;;;;;;33.17;36.33;96535.53;127856;1093;46996;-94
2021/07/09 11:40:16;;;;;;;9.03;7.10;;;;;;;33.31;36.41;96519.48;127763;1093;78376;-92
2021/07/09 11:42:48;;;;;;;8.13;6.98;;;;;;;33.32;36.35;96533.98;127758;1093;26920;-93
2021/07/09 11:45:20;;;;;;;8.00;7.18;;;;;;;33.13;36.88;96529.36;127597;1093;65418;-87
2021/07/09 11:48:02;;;;;;;9.35;7.35;;;;;;;33.18;36.36;96537.08;127605;1093;25690;-91
2021/07/09 11:50:37;;;;;;;8.45;7.03;;;;;;;33.01;36.30;96526.08;127531;1093;22795;-93
2021/07/09 11:53:17;;;;;;;8.20;6.80;;;;;;;32.95;36.70;96530.55;127605;1092;25742;-91